sensor_id;sensor_type;location;lat;lon;timestamp;temperature;humidity
20777;DHT22;10548;47.504;8.248;2024-03-02T00:01:37;4.80;99.90
20777;DHT22;10548;47.504;8.248;2024-03-02T00:04:07;4.70;99.90
20777;DHT22;10548;47.504;8.248;2024-03-02T00:06:35;4.60;99.90
20777;DHT22;10548;47.504;8.248;2024-03-02T00:09:02;4.60;99.90
20777;DHT22;10548;47.504;8.248;2024-03-02T00:11:30;4.50;99.90
20777;DHT22;10548;47.504;8.248;2024-03-02T00:13:57;4.50;99.90
20777;DHT22;10548;47.504;8.248;2024-03-02T00:16:30;4.50;99.90
20777;DHT22;10548;47.504;8.248;2024-03-02T00:19:02;4.50;99.90
20777;DHT22;10548;47.504;8.248;2024-03-02T00:21:30;4.60;99.90
20777;DHT22;10548;47.504;8.248;2024-03-02T00:23:58;4.60;99.90
20777;DHT22;10548;47.504;8.248;2024-03-02T00:26:26;4.50;99.90
20777;DHT22;10548;47.504;8.248;2024-03-02T00:28:55;4.40;99.90
20777;DHT22;10548;47.504;8.248;2024-03-02T00:31:24;4.40;99.90
20777;DHT22;10548;47.504;8.248;2024-03-02T00:33:53;4.50;99.90
20777;DHT22;10548;47.504;8.248;2024-03-02T00:36:27;4.50;99.90
20777;DHT22;10548;47.504;8.248;2024-03-02T00:38:54;4.40;99.90
20777;DHT22;10548;47.504;8.248;2024-03-02T00:41:31;4.40;99.90
20777;DHT22;10548;47.504;8.248;2024-03-02T00:44:03;4.40;99.90
20777;DHT22;10548;47.504;8.248;2024-03-02T00:46:37;4.30;99.90
20777;DHT22;10548;47.504;8.248;2024-03-02T00:49:11;4.20;99.90
20777;DHT22;10548;47.504;8.248;2024-03-02T00:51:39;4.30;99.90
20777;DHT22;10548;47.504;8.248;2024-03-02T00:54:09;4.20;99.90
20777;DHT22;10548;47.504;8.248;2024-03-02T00:56:37;4.20;99.90
20777;DHT22;10548;47.504;8.248;2024-03-02T00:59:04;4.20;99.90
20777;DHT22;10548;47.504;8.248;2024-03-02T01:01:31;4.20;99.90
20777;DHT22;10548;47.504;8.248;2024-03-02T01:03:59;4.10;99.90
20777;DHT22;10548;47.504;8.248;2024-03-02T01:06:26;4.20;99.90
20777;DHT22;10548;47.504;8.248;2024-03-02T01:08:54;4.20;99.90
20777;DHT22;10548;47.504;8.248;2024-03-02T01:11:22;4.20;99.90
20777;DHT22;10548;47.504;8.248;2024-03-02T01:13:50;4.30;99.90
20777;DHT22;10548;47.504;8.248;2024-03-02T01:16:19;4.40;99.90
20777;DHT22;10548;47.504;8.248;2024-03-02T01:18:47;4.50;99.90
20777;DHT22;10548;47.504;8.248;2024-03-02T01:21:15;4.60;99.90
20777;DHT22;10548;47.504;8.248;2024-03-02T01:23:42;4.70;99.90
20777;DHT22;10548;47.504;8.248;2024-03-02T01:26:10;4.70;99.90
20777;DHT22;10548;47.504;8.248;2024-03-02T01:28:37;4.70;99.90
20777;DHT22;10548;47.504;8.248;2024-03-02T01:31:05;4.80;99.90
20777;DHT22;10548;47.504;8.248;2024-03-02T01:33:32;4.80;99.90
20777;DHT22;10548;47.504;8.248;2024-03-02T01:35:59;4.90;99.90
20777;DHT22;10548;47.504;8.248;2024-03-02T01:38:26;5.00;99.90
20777;DHT22;10548;47.504;8.248;2024-03-02T01:40:55;5.00;99.90
20777;DHT22;10548;47.504;8.248;2024-03-02T01:43:24;5.10;99.90
20777;DHT22;10548;47.504;8.248;2024-03-02T01:45:51;5.20;99.90
20777;DHT22;10548;47.504;8.248;2024-03-02T01:48:18;5.20;99.90
20777;DHT22;10548;47.504;8.248;2024-03-02T01:50:46;5.00;99.90
20777;DHT22;10548;47.504;8.248;2024-03-02T01:53:13;4.90;99.90
20777;DHT22;10548;47.504;8.248;2024-03-02T01:55:41;4.90;99.90
20777;DHT22;10548;47.504;8.248;2024-03-02T01:58:08;4.90;99.90
20777;DHT22;10548;47.504;8.248;2024-03-02T02:00:36;5.00;99.90
20777;DHT22;10548;47.504;8.248;2024-03-02T02:03:04;4.90;99.90
20777;DHT22;10548;47.504;8.248;2024-03-02T02:05:31;4.70;99.90
20777;DHT22;10548;47.504;8.248;2024-03-02T02:07:59;4.70;99.90
20777;DHT22;10548;47.504;8.248;2024-03-02T02:10:26;4.70;99.90
20777;DHT22;10548;47.504;8.248;2024-03-02T02:12:53;4.60;99.90
20777;DHT22;10548;47.504;8.248;2024-03-02T02:15:31;4.70;99.90
20777;DHT22;10548;47.504;8.248;2024-03-02T02:17:59;4.80;99.90
20777;DHT22;10548;47.504;8.248;2024-03-02T02:20:26;4.90;99.90
20777;DHT22;10548;47.504;8.248;2024-03-02T02:22:58;5.00;99.90
20777;DHT22;10548;47.504;8.248;2024-03-02T02:25:26;4.90;99.90
20777;DHT22;10548;47.504;8.248;2024-03-02T02:27:53;4.80;99.90
20777;DHT22;10548;47.504;8.248;2024-03-02T02:30:29;4.80;99.90
20777;DHT22;10548;47.504;8.248;2024-03-02T02:32:56;4.80;99.90
20777;DHT22;10548;47.504;8.248;2024-03-02T02:35:24;4.90;99.90
20777;DHT22;10548;47.504;8.248;2024-03-02T02:37:53;4.80;99.90
20777;DHT22;10548;47.504;8.248;2024-03-02T02:40:21;4.90;99.90
20777;DHT22;10548;47.504;8.248;2024-03-02T02:42:49;4.90;99.90
20777;DHT22;10548;47.504;8.248;2024-03-02T02:45:17;5.00;99.90
20777;DHT22;10548;47.504;8.248;2024-03-02T02:47:44;5.10;99.90
20777;DHT22;10548;47.504;8.248;2024-03-02T02:50:12;5.20;99.90
20777;DHT22;10548;47.504;8.248;2024-03-02T02:52:41;5.20;99.90
20777;DHT22;10548;47.504;8.248;2024-03-02T02:55:10;5.20;99.90
20777;DHT22;10548;47.504;8.248;2024-03-02T02:57:39;5.20;99.90
20777;DHT22;10548;47.504;8.248;2024-03-02T03:00:14;5.20;99.90
20777;DHT22;10548;47.504;8.248;2024-03-02T03:02:48;5.10;99.90
20777;DHT22;10548;47.504;8.248;2024-03-02T03:05:18;5.20;99.90
20777;DHT22;10548;47.504;8.248;2024-03-02T03:07:45;5.20;99.90
20777;DHT22;10548;47.504;8.248;2024-03-02T03:10:16;5.20;99.90
20777;DHT22;10548;47.504;8.248;2024-03-02T03:12:43;5.20;99.90
20777;DHT22;10548;47.504;8.248;2024-03-02T03:15:11;5.10;99.90
20777;DHT22;10548;47.504;8.248;2024-03-02T03:17:40;5.20;99.90
20777;DHT22;10548;47.504;8.248;2024-03-02T03:20:08;5.20;99.90
20777;DHT22;10548;47.504;8.248;2024-03-02T03:22:38;5.10;99.90
20777;DHT22;10548;47.504;8.248;2024-03-02T03:25:06;5.00;99.90
20777;DHT22;10548;47.504;8.248;2024-03-02T03:27:36;5.00;99.90
20777;DHT22;10548;47.504;8.248;2024-03-02T03:30:05;5.00;99.90
20777;DHT22;10548;47.504;8.248;2024-03-02T03:32:34;5.00;99.90
20777;DHT22;10548;47.504;8.248;2024-03-02T03:35:01;5.00;99.90
20777;DHT22;10548;47.504;8.248;2024-03-02T03:37:29;5.00;99.90
20777;DHT22;10548;47.504;8.248;2024-03-02T03:40:05;5.10;99.90
20777;DHT22;10548;47.504;8.248;2024-03-02T03:42:38;4.90;99.90
20777;DHT22;10548;47.504;8.248;2024-03-02T03:45:07;5.00;99.90
20777;DHT22;10548;47.504;8.248;2024-03-02T03:47:34;5.00;99.90
20777;DHT22;10548;47.504;8.248;2024-03-02T03:50:02;5.00;99.90
20777;DHT22;10548;47.504;8.248;2024-03-02T03:52:32;5.00;99.90
20777;DHT22;10548;47.504;8.248;2024-03-02T03:55:00;5.00;99.90
20777;DHT22;10548;47.504;8.248;2024-03-02T03:57:27;5.00;99.90
20777;DHT22;10548;47.504;8.248;2024-03-02T03:59:55;4.90;99.90
20777;DHT22;10548;47.504;8.248;2024-03-02T04:02:22;4.90;99.90
20777;DHT22;10548;47.504;8.248;2024-03-02T04:04:51;4.80;99.90
20777;DHT22;10548;47.504;8.248;2024-03-02T04:07:18;4.80;99.90
20777;DHT22;10548;47.504;8.248;2024-03-02T04:09:46;4.80;99.90
20777;DHT22;10548;47.504;8.248;2024-03-02T04:12:13;4.70;99.90
20777;DHT22;10548;47.504;8.248;2024-03-02T04:14:40;4.80;99.90
20777;DHT22;10548;47.504;8.248;2024-03-02T04:17:09;4.90;99.90
20777;DHT22;10548;47.504;8.248;2024-03-02T04:19:37;4.90;99.90
20777;DHT22;10548;47.504;8.248;2024-03-02T04:22:04;4.90;99.90
20777;DHT22;10548;47.504;8.248;2024-03-02T04:24:44;4.90;99.90
20777;DHT22;10548;47.504;8.248;2024-03-02T04:27:11;4.90;99.90
20777;DHT22;10548;47.504;8.248;2024-03-02T04:29:39;4.90;99.90
20777;DHT22;10548;47.504;8.248;2024-03-02T04:32:06;4.90;99.90
20777;DHT22;10548;47.504;8.248;2024-03-02T04:34:34;4.90;99.90
20777;DHT22;10548;47.504;8.248;2024-03-02T04:37:01;5.00;99.90
20777;DHT22;10548;47.504;8.248;2024-03-02T04:39:28;5.10;99.90
20777;DHT22;10548;47.504;8.248;2024-03-02T04:41:56;5.00;99.90
20777;DHT22;10548;47.504;8.248;2024-03-02T04:44:23;5.00;99.90
20777;DHT22;10548;47.504;8.248;2024-03-02T04:46:50;4.90;99.90
20777;DHT22;10548;47.504;8.248;2024-03-02T04:49:18;5.00;99.90
20777;DHT22;10548;47.504;8.248;2024-03-02T04:51:45;5.00;99.90
20777;DHT22;10548;47.504;8.248;2024-03-02T04:54:12;5.00;99.90
20777;DHT22;10548;47.504;8.248;2024-03-02T04:56:41;5.00;99.90
20777;DHT22;10548;47.504;8.248;2024-03-02T04:59:11;5.00;99.90
20777;DHT22;10548;47.504;8.248;2024-03-02T05:01:39;5.00;99.90
20777;DHT22;10548;47.504;8.248;2024-03-02T05:04:06;4.90;99.90
20777;DHT22;10548;47.504;8.248;2024-03-02T05:06:33;5.00;99.90
20777;DHT22;10548;47.504;8.248;2024-03-02T05:09:01;4.70;99.90
20777;DHT22;10548;47.504;8.248;2024-03-02T05:11:28;4.70;99.90
20777;DHT22;10548;47.504;8.248;2024-03-02T05:14:17;4.80;99.90
20777;DHT22;10548;47.504;8.248;2024-03-02T05:16:44;4.80;99.90
20777;DHT22;10548;47.504;8.248;2024-03-02T05:19:12;4.80;99.90
20777;DHT22;10548;47.504;8.248;2024-03-02T05:21:39;4.70;99.90
20777;DHT22;10548;47.504;8.248;2024-03-02T05:24:07;4.60;99.90
20777;DHT22;10548;47.504;8.248;2024-03-02T05:26:34;4.50;99.90
20777;DHT22;10548;47.504;8.248;2024-03-02T05:29:01;4.50;99.90
20777;DHT22;10548;47.504;8.248;2024-03-02T05:31:30;4.60;99.90
20777;DHT22;10548;47.504;8.248;2024-03-02T05:33:57;4.60;99.90
20777;DHT22;10548;47.504;8.248;2024-03-02T05:36:24;4.60;99.90
20777;DHT22;10548;47.504;8.248;2024-03-02T05:38:52;4.60;99.90
20777;DHT22;10548;47.504;8.248;2024-03-02T05:41:19;4.50;99.90
20777;DHT22;10548;47.504;8.248;2024-03-02T05:43:46;4.60;99.90
20777;DHT22;10548;47.504;8.248;2024-03-02T05:46:14;4.60;99.90
20777;DHT22;10548;47.504;8.248;2024-03-02T05:48:41;4.60;99.90
20777;DHT22;10548;47.504;8.248;2024-03-02T05:51:08;4.60;99.90
20777;DHT22;10548;47.504;8.248;2024-03-02T05:53:36;4.50;99.90
20777;DHT22;10548;47.504;8.248;2024-03-02T05:56:05;4.50;99.90
20777;DHT22;10548;47.504;8.248;2024-03-02T05:58:33;4.60;99.90
20777;DHT22;10548;47.504;8.248;2024-03-02T06:01:19;4.70;99.90
20777;DHT22;10548;47.504;8.248;2024-03-02T06:03:46;4.60;99.90
20777;DHT22;10548;47.504;8.248;2024-03-02T06:06:14;4.60;99.90
20777;DHT22;10548;47.504;8.248;2024-03-02T06:08:41;4.50;99.90
20777;DHT22;10548;47.504;8.248;2024-03-02T06:11:08;4.60;99.90
20777;DHT22;10548;47.504;8.248;2024-03-02T06:13:35;4.50;99.90
20777;DHT22;10548;47.504;8.248;2024-03-02T06:16:03;4.60;99.90
20777;DHT22;10548;47.504;8.248;2024-03-02T06:18:30;4.60;99.90
20777;DHT22;10548;47.504;8.248;2024-03-02T06:20:57;4.50;99.90
20777;DHT22;10548;47.504;8.248;2024-03-02T06:23:25;4.40;99.90
20777;DHT22;10548;47.504;8.248;2024-03-02T06:25:52;4.40;99.90
20777;DHT22;10548;47.504;8.248;2024-03-02T06:28:19;4.50;99.90
20777;DHT22;10548;47.504;8.248;2024-03-02T06:30:47;4.50;99.90
20777;DHT22;10548;47.504;8.248;2024-03-02T06:33:15;4.60;99.90
20777;DHT22;10548;47.504;8.248;2024-03-02T06:35:42;4.60;99.90
20777;DHT22;10548;47.504;8.248;2024-03-02T06:38:09;4.50;99.90
20777;DHT22;10548;47.504;8.248;2024-03-02T06:40:37;4.50;99.90
20777;DHT22;10548;47.504;8.248;2024-03-02T06:43:06;4.50;99.90
20777;DHT22;10548;47.504;8.248;2024-03-02T06:45:33;4.60;99.90
20777;DHT22;10548;47.504;8.248;2024-03-02T06:48:01;4.60;99.90
20777;DHT22;10548;47.504;8.248;2024-03-02T06:50:29;4.50;99.90
20777;DHT22;10548;47.504;8.248;2024-03-02T06:52:56;4.60;99.90
20777;DHT22;10548;47.504;8.248;2024-03-02T06:55:24;4.50;99.90
20777;DHT22;10548;47.504;8.248;2024-03-02T06:57:52;4.50;99.90
20777;DHT22;10548;47.504;8.248;2024-03-02T07:00:19;4.50;99.90
20777;DHT22;10548;47.504;8.248;2024-03-02T07:02:47;4.70;99.90
20777;DHT22;10548;47.504;8.248;2024-03-02T07:05:15;4.70;99.90
20777;DHT22;10548;47.504;8.248;2024-03-02T07:07:42;4.70;99.90
20777;DHT22;10548;47.504;8.248;2024-03-02T07:10:09;4.80;99.90
20777;DHT22;10548;47.504;8.248;2024-03-02T07:12:37;4.80;99.90
20777;DHT22;10548;47.504;8.248;2024-03-02T07:15:05;4.90;99.90
20777;DHT22;10548;47.504;8.248;2024-03-02T07:17:48;4.90;99.90
20777;DHT22;10548;47.504;8.248;2024-03-02T07:20:16;4.90;99.90
20777;DHT22;10548;47.504;8.248;2024-03-02T07:22:43;4.70;99.90
20777;DHT22;10548;47.504;8.248;2024-03-02T07:25:11;4.70;99.90
20777;DHT22;10548;47.504;8.248;2024-03-02T07:27:41;4.80;99.90
20777;DHT22;10548;47.504;8.248;2024-03-02T07:30:14;4.80;99.90
20777;DHT22;10548;47.504;8.248;2024-03-02T07:32:43;4.90;99.90
20777;DHT22;10548;47.504;8.248;2024-03-02T07:35:13;5.00;99.90
20777;DHT22;10548;47.504;8.248;2024-03-02T07:37:44;5.10;99.90
20777;DHT22;10548;47.504;8.248;2024-03-02T07:40:12;5.10;99.90
20777;DHT22;10548;47.504;8.248;2024-03-02T07:42:39;5.00;99.90
20777;DHT22;10548;47.504;8.248;2024-03-02T07:45:08;5.10;99.90
20777;DHT22;10548;47.504;8.248;2024-03-02T07:47:35;5.20;99.90
20777;DHT22;10548;47.504;8.248;2024-03-02T07:50:03;5.40;99.90
20777;DHT22;10548;47.504;8.248;2024-03-02T07:52:33;5.30;99.90
20777;DHT22;10548;47.504;8.248;2024-03-02T07:55:00;5.50;99.90
20777;DHT22;10548;47.504;8.248;2024-03-02T07:57:28;5.40;99.90
20777;DHT22;10548;47.504;8.248;2024-03-02T07:59:55;5.10;99.90
20777;DHT22;10548;47.504;8.248;2024-03-02T08:02:22;5.10;99.90
20777;DHT22;10548;47.504;8.248;2024-03-02T08:04:50;4.90;99.90
20777;DHT22;10548;47.504;8.248;2024-03-02T08:07:17;5.10;99.90
20777;DHT22;10548;47.504;8.248;2024-03-02T08:09:44;5.10;99.90
20777;DHT22;10548;47.504;8.248;2024-03-02T08:12:12;4.90;99.90
20777;DHT22;10548;47.504;8.248;2024-03-02T08:14:40;5.00;99.90
20777;DHT22;10548;47.504;8.248;2024-03-02T08:17:07;5.10;99.90
20777;DHT22;10548;47.504;8.248;2024-03-02T08:19:37;5.30;99.90
20777;DHT22;10548;47.504;8.248;2024-03-02T08:22:04;5.40;99.90
20777;DHT22;10548;47.504;8.248;2024-03-02T08:24:32;5.60;99.90
20777;DHT22;10548;47.504;8.248;2024-03-02T08:27:00;5.60;99.90
20777;DHT22;10548;47.504;8.248;2024-03-02T08:29:27;5.70;99.90
20777;DHT22;10548;47.504;8.248;2024-03-02T08:31:55;5.80;99.90
20777;DHT22;10548;47.504;8.248;2024-03-02T08:34:22;5.90;99.90
20777;DHT22;10548;47.504;8.248;2024-03-02T08:36:50;5.90;99.90
20777;DHT22;10548;47.504;8.248;2024-03-02T08:39:17;5.70;99.90
20777;DHT22;10548;47.504;8.248;2024-03-02T08:41:47;5.80;99.90
20777;DHT22;10548;47.504;8.248;2024-03-02T08:44:15;6.00;99.90
20777;DHT22;10548;47.504;8.248;2024-03-02T08:46:42;6.00;99.90
20777;DHT22;10548;47.504;8.248;2024-03-02T08:49:10;6.00;99.90
20777;DHT22;10548;47.504;8.248;2024-03-02T08:51:38;6.10;99.90
20777;DHT22;10548;47.504;8.248;2024-03-02T08:54:05;6.20;99.90
20777;DHT22;10548;47.504;8.248;2024-03-02T08:56:32;6.30;99.90
20777;DHT22;10548;47.504;8.248;2024-03-02T08:59:00;6.10;99.90
20777;DHT22;10548;47.504;8.248;2024-03-02T09:01:27;6.50;99.90
20777;DHT22;10548;47.504;8.248;2024-03-02T09:03:55;6.70;99.90
20777;DHT22;10548;47.504;8.248;2024-03-02T09:06:23;6.80;99.90
20777;DHT22;10548;47.504;8.248;2024-03-02T09:08:50;6.50;99.90
20777;DHT22;10548;47.504;8.248;2024-03-02T09:11:19;6.60;99.90
20777;DHT22;10548;47.504;8.248;2024-03-02T09:13:46;6.70;99.90
20777;DHT22;10548;47.504;8.248;2024-03-02T09:16:13;6.80;99.90
20777;DHT22;10548;47.504;8.248;2024-03-02T09:18:41;6.90;99.90
20777;DHT22;10548;47.504;8.248;2024-03-02T09:21:08;7.10;99.90
20777;DHT22;10548;47.504;8.248;2024-03-02T09:23:35;6.90;99.90
20777;DHT22;10548;47.504;8.248;2024-03-02T09:26:03;6.90;99.90
20777;DHT22;10548;47.504;8.248;2024-03-02T09:28:30;7.00;99.90
20777;DHT22;10548;47.504;8.248;2024-03-02T09:30:57;7.10;99.90
20777;DHT22;10548;47.504;8.248;2024-03-02T09:33:26;7.20;99.90
20777;DHT22;10548;47.504;8.248;2024-03-02T09:35:54;7.30;99.90
20777;DHT22;10548;47.504;8.248;2024-03-02T09:38:21;7.50;99.90
20777;DHT22;10548;47.504;8.248;2024-03-02T09:40:49;7.60;99.90
20777;DHT22;10548;47.504;8.248;2024-03-02T09:43:16;7.50;99.90
20777;DHT22;10548;47.504;8.248;2024-03-02T09:45:45;7.60;99.90
20777;DHT22;10548;47.504;8.248;2024-03-02T09:48:12;7.50;99.90
20777;DHT22;10548;47.504;8.248;2024-03-02T09:50:39;7.70;99.90
20777;DHT22;10548;47.504;8.248;2024-03-02T09:53:07;7.80;99.90
20777;DHT22;10548;47.504;8.248;2024-03-02T09:55:35;7.80;99.90
20777;DHT22;10548;47.504;8.248;2024-03-02T09:58:03;7.80;99.90
20777;DHT22;10548;47.504;8.248;2024-03-02T10:00:30;7.80;99.90
20777;DHT22;10548;47.504;8.248;2024-03-02T10:02:58;8.00;99.90
20777;DHT22;10548;47.504;8.248;2024-03-02T10:05:26;8.10;99.90
20777;DHT22;10548;47.504;8.248;2024-03-02T10:08:00;8.20;99.90
20777;DHT22;10548;47.504;8.248;2024-03-02T10:10:38;8.40;99.90
20777;DHT22;10548;47.504;8.248;2024-03-02T10:13:10;8.70;99.90
20777;DHT22;10548;47.504;8.248;2024-03-02T10:15:38;8.00;99.90
20777;DHT22;10548;47.504;8.248;2024-03-02T10:18:12;8.70;99.90
20777;DHT22;10548;47.504;8.248;2024-03-02T10:20:40;9.70;99.90
20777;DHT22;10548;47.504;8.248;2024-03-02T10:23:14;10.60;99.90
20777;DHT22;10548;47.504;8.248;2024-03-02T10:25:43;10.30;99.90
20777;DHT22;10548;47.504;8.248;2024-03-02T10:28:23;10.70;99.90
20777;DHT22;10548;47.504;8.248;2024-03-02T10:30:51;10.80;99.90
20777;DHT22;10548;47.504;8.248;2024-03-02T10:33:20;11.60;99.90
20777;DHT22;10548;47.504;8.248;2024-03-02T10:35:49;12.00;99.90
20777;DHT22;10548;47.504;8.248;2024-03-02T10:38:17;12.20;99.90
20777;DHT22;10548;47.504;8.248;2024-03-02T10:40:47;12.30;99.90
20777;DHT22;10548;47.504;8.248;2024-03-02T10:43:16;13.00;99.90
20777;DHT22;10548;47.504;8.248;2024-03-02T10:45:45;12.10;99.90
20777;DHT22;10548;47.504;8.248;2024-03-02T10:48:15;11.40;99.90
20777;DHT22;10548;47.504;8.248;2024-03-02T10:50:43;11.10;99.90
20777;DHT22;10548;47.504;8.248;2024-03-02T10:53:10;11.40;99.90
20777;DHT22;10548;47.504;8.248;2024-03-02T10:55:37;11.40;99.90
20777;DHT22;10548;47.504;8.248;2024-03-02T10:58:06;12.10;99.90
20777;DHT22;10548;47.504;8.248;2024-03-02T11:00:38;11.60;99.90
20777;DHT22;10548;47.504;8.248;2024-03-02T11:10:54;11.30;99.90
20777;DHT22;10548;47.504;8.248;2024-03-02T11:13:31;11.30;99.90
20777;DHT22;10548;47.504;8.248;2024-03-02T11:16:05;12.20;99.90
20777;DHT22;10548;47.504;8.248;2024-03-02T11:18:34;12.20;99.90
20777;DHT22;10548;47.504;8.248;2024-03-02T11:21:02;12.60;99.90
20777;DHT22;10548;47.504;8.248;2024-03-02T11:23:34;12.00;99.90
20777;DHT22;10548;47.504;8.248;2024-03-02T11:26:21;13.10;99.90
20777;DHT22;10548;47.504;8.248;2024-03-02T11:28:49;13.50;99.90
20777;DHT22;10548;47.504;8.248;2024-03-02T11:31:16;13.70;96.50
20777;DHT22;10548;47.504;8.248;2024-03-02T11:33:43;14.50;97.50
20777;DHT22;10548;47.504;8.248;2024-03-02T11:36:11;14.30;96.30
20777;DHT22;10548;47.504;8.248;2024-03-02T11:38:39;15.70;92.10
20777;DHT22;10548;47.504;8.248;2024-03-02T11:41:12;15.80;89.90
20777;DHT22;10548;47.504;8.248;2024-03-02T11:43:42;15.60;85.80
20777;DHT22;10548;47.504;8.248;2024-03-02T11:46:11;16.10;84.30
20777;DHT22;10548;47.504;8.248;2024-03-02T11:48:40;16.10;83.00
20777;DHT22;10548;47.504;8.248;2024-03-02T11:51:07;14.80;89.40
20777;DHT22;10548;47.504;8.248;2024-03-02T11:53:35;16.10;82.00
20777;DHT22;10548;47.504;8.248;2024-03-02T11:56:06;15.80;77.10
20777;DHT22;10548;47.504;8.248;2024-03-02T11:58:37;14.50;88.30
20777;DHT22;10548;47.504;8.248;2024-03-02T12:01:05;13.70;90.10
20777;DHT22;10548;47.504;8.248;2024-03-02T12:03:32;14.50;93.10
20777;DHT22;10548;47.504;8.248;2024-03-02T12:06:02;14.90;92.40
20777;DHT22;10548;47.504;8.248;2024-03-02T12:08:30;15.40;83.30
20777;DHT22;10548;47.504;8.248;2024-03-02T12:11:00;15.90;84.40
20777;DHT22;10548;47.504;8.248;2024-03-02T12:13:29;15.00;82.90
20777;DHT22;10548;47.504;8.248;2024-03-02T12:15:57;16.60;73.90
20777;DHT22;10548;47.504;8.248;2024-03-02T12:18:25;16.30;70.30
20777;DHT22;10548;47.504;8.248;2024-03-02T12:20:53;16.60;72.30
20777;DHT22;10548;47.504;8.248;2024-03-02T12:23:30;15.80;69.80
20777;DHT22;10548;47.504;8.248;2024-03-02T12:25:57;17.10;73.20
20777;DHT22;10548;47.504;8.248;2024-03-02T12:28:25;16.50;68.90
20777;DHT22;10548;47.504;8.248;2024-03-02T12:30:53;17.60;69.80
20777;DHT22;10548;47.504;8.248;2024-03-02T12:33:20;16.10;67.90
20777;DHT22;10548;47.504;8.248;2024-03-02T12:35:49;15.90;74.70
20777;DHT22;10548;47.504;8.248;2024-03-02T12:38:16;17.60;70.40
20777;DHT22;10548;47.504;8.248;2024-03-02T12:40:44;17.20;64.00
20777;DHT22;10548;47.504;8.248;2024-03-02T12:43:11;17.70;66.60
20777;DHT22;10548;47.504;8.248;2024-03-02T12:45:39;17.70;62.70
20777;DHT22;10548;47.504;8.248;2024-03-02T12:48:06;17.10;59.80
20777;DHT22;10548;47.504;8.248;2024-03-02T12:50:34;18.30;58.20
20777;DHT22;10548;47.504;8.248;2024-03-02T12:53:01;17.80;55.90
20777;DHT22;10548;47.504;8.248;2024-03-02T12:55:29;18.40;55.10
20777;DHT22;10548;47.504;8.248;2024-03-02T12:57:57;18.20;51.40
20777;DHT22;10548;47.504;8.248;2024-03-02T13:00:26;18.00;50.50
20777;DHT22;10548;47.504;8.248;2024-03-02T13:02:54;17.40;53.70
20777;DHT22;10548;47.504;8.248;2024-03-02T13:05:32;18.00;53.10
20777;DHT22;10548;47.504;8.248;2024-03-02T13:08:00;17.40;54.30
20777;DHT22;10548;47.504;8.248;2024-03-02T13:10:27;17.50;53.00
20777;DHT22;10548;47.504;8.248;2024-03-02T13:12:56;17.90;53.10
20777;DHT22;10548;47.504;8.248;2024-03-02T13:15:25;17.90;51.10
20777;DHT22;10548;47.504;8.248;2024-03-02T13:17:53;16.90;51.10
20777;DHT22;10548;47.504;8.248;2024-03-02T13:20:31;16.30;53.00
20777;DHT22;10548;47.504;8.248;2024-03-02T13:22:59;16.10;54.20
20777;DHT22;10548;47.504;8.248;2024-03-02T13:25:27;16.10;53.40
20777;DHT22;10548;47.504;8.248;2024-03-02T13:27:56;15.70;54.50
20777;DHT22;10548;47.504;8.248;2024-03-02T13:30:24;15.40;56.40
20777;DHT22;10548;47.504;8.248;2024-03-02T13:32:51;15.30;57.40
20777;DHT22;10548;47.504;8.248;2024-03-02T13:35:20;14.90;58.20
20777;DHT22;10548;47.504;8.248;2024-03-02T13:37:47;14.00;58.40
20777;DHT22;10548;47.504;8.248;2024-03-02T13:40:14;14.30;64.30
20777;DHT22;10548;47.504;8.248;2024-03-02T13:42:47;14.40;63.60
20777;DHT22;10548;47.504;8.248;2024-03-02T13:45:15;14.40;65.30
20777;DHT22;10548;47.504;8.248;2024-03-02T13:47:42;14.30;64.70
20777;DHT22;10548;47.504;8.248;2024-03-02T13:50:10;13.80;62.50
20777;DHT22;10548;47.504;8.248;2024-03-02T13:52:37;14.10;64.50
20777;DHT22;10548;47.504;8.248;2024-03-02T13:55:05;13.80;65.00
20777;DHT22;10548;47.504;8.248;2024-03-02T13:57:33;14.30;65.40
20777;DHT22;10548;47.504;8.248;2024-03-02T14:00:00;14.30;66.60
20777;DHT22;10548;47.504;8.248;2024-03-02T14:02:38;14.10;66.80
20777;DHT22;10548;47.504;8.248;2024-03-02T14:05:05;14.10;68.30
20777;DHT22;10548;47.504;8.248;2024-03-02T14:07:38;14.20;66.20
20777;DHT22;10548;47.504;8.248;2024-03-02T14:10:06;14.30;66.20
20777;DHT22;10548;47.504;8.248;2024-03-02T14:12:33;14.30;66.30
20777;DHT22;10548;47.504;8.248;2024-03-02T14:15:00;14.20;70.70
20777;DHT22;10548;47.504;8.248;2024-03-02T14:17:30;14.10;71.90
20777;DHT22;10548;47.504;8.248;2024-03-02T14:19:59;14.10;66.30
20777;DHT22;10548;47.504;8.248;2024-03-02T14:22:26;13.90;66.10
20777;DHT22;10548;47.504;8.248;2024-03-02T14:24:53;14.00;70.60
20777;DHT22;10548;47.504;8.248;2024-03-02T14:27:21;13.90;66.30
20777;DHT22;10548;47.504;8.248;2024-03-02T14:30:05;13.70;68.70
20777;DHT22;10548;47.504;8.248;2024-03-02T14:32:32;13.70;71.80
20777;DHT22;10548;47.504;8.248;2024-03-02T14:34:59;13.80;76.10
20777;DHT22;10548;47.504;8.248;2024-03-02T14:37:27;13.90;70.90
20777;DHT22;10548;47.504;8.248;2024-03-02T14:39:54;13.90;72.70
20777;DHT22;10548;47.504;8.248;2024-03-02T14:42:22;13.80;72.50
20777;DHT22;10548;47.504;8.248;2024-03-02T14:44:50;13.70;74.10
20777;DHT22;10548;47.504;8.248;2024-03-02T14:47:17;13.50;73.20
20777;DHT22;10548;47.504;8.248;2024-03-02T14:49:44;13.40;73.80
20777;DHT22;10548;47.504;8.248;2024-03-02T14:52:11;13.30;72.10
20777;DHT22;10548;47.504;8.248;2024-03-02T14:54:39;13.30;71.20
20777;DHT22;10548;47.504;8.248;2024-03-02T14:57:06;13.30;72.30
20777;DHT22;10548;47.504;8.248;2024-03-02T14:59:33;13.10;72.30
20777;DHT22;10548;47.504;8.248;2024-03-02T15:02:01;13.00;78.00
20777;DHT22;10548;47.504;8.248;2024-03-02T15:04:28;13.10;79.60
20777;DHT22;10548;47.504;8.248;2024-03-02T15:06:56;13.30;77.10
20777;DHT22;10548;47.504;8.248;2024-03-02T15:09:23;13.20;72.70
20777;DHT22;10548;47.504;8.248;2024-03-02T15:11:50;13.30;80.60
20777;DHT22;10548;47.504;8.248;2024-03-02T15:14:18;13.40;81.10
20777;DHT22;10548;47.504;8.248;2024-03-02T15:16:45;13.50;80.20
20777;DHT22;10548;47.504;8.248;2024-03-02T15:19:12;13.60;82.60
20777;DHT22;10548;47.504;8.248;2024-03-02T15:21:40;13.70;76.80
20777;DHT22;10548;47.504;8.248;2024-03-02T15:24:07;13.90;75.10
20777;DHT22;10548;47.504;8.248;2024-03-02T15:26:35;13.60;78.00
20777;DHT22;10548;47.504;8.248;2024-03-02T15:29:02;13.70;76.60
20777;DHT22;10548;47.504;8.248;2024-03-02T15:31:29;14.20;75.40
20777;DHT22;10548;47.504;8.248;2024-03-02T15:33:56;14.60;74.50
20777;DHT22;10548;47.504;8.248;2024-03-02T15:36:25;15.00;73.70
20777;DHT22;10548;47.504;8.248;2024-03-02T15:38:53;14.80;72.70
20777;DHT22;10548;47.504;8.248;2024-03-02T15:41:20;14.80;72.20
20777;DHT22;10548;47.504;8.248;2024-03-02T15:43:47;14.40;70.90
20777;DHT22;10548;47.504;8.248;2024-03-02T15:46:15;14.60;75.00
20777;DHT22;10548;47.504;8.248;2024-03-02T15:48:43;15.00;68.70
20777;DHT22;10548;47.504;8.248;2024-03-02T15:51:10;18.20;59.00
20777;DHT22;10548;47.504;8.248;2024-03-02T15:53:39;20.60;47.50
20777;DHT22;10548;47.504;8.248;2024-03-02T15:56:06;21.60;42.80